createdAt,value
2022-10-17T00:02:09.535Z,7.25
2022-10-17T00:07:11.405Z,6.82
2022-10-17T00:12:13.143Z,7.53
2022-10-17T00:17:15.729Z,7.75
2022-10-17T00:22:17.528Z,7.18
2022-10-17T00:27:19.309Z,6.85
2022-10-17T00:32:21.182Z,7.45
2022-10-17T00:37:23.099Z,6.68
2022-10-17T00:42:25.932Z,7.00
2022-10-17T00:47:28.951Z,7.05
2022-10-17T00:52:32.004Z,6.22
2022-10-17T00:57:34.291Z,7.22
2022-10-17T01:02:36.731Z,6.90
2022-10-17T01:07:39.882Z,6.93
2022-10-17T01:12:57.147Z,6.95
2022-10-17T01:18:24.643Z,6.55
2022-10-17T01:23:45.157Z,6.80
2022-10-17T01:29:40.810Z,5.90
2022-10-17T01:35:17.688Z,6.30
2022-10-17T01:40:27.029Z,7.00
2022-10-17T01:45:37.259Z,6.10
2022-10-17T01:50:45.091Z,6.70
2022-10-17T01:55:49.552Z,6.63
2022-10-17T02:00:53.588Z,6.15
2022-10-17T02:05:56.088Z,6.05
2022-10-17T02:11:06.919Z,6.18
2022-10-17T02:16:35.664Z,5.88
2022-10-17T02:22:06.934Z,5.35
2022-10-17T02:27:14.819Z,5.22
2022-10-17T02:32:26.667Z,5.65
2022-10-17T02:37:31.455Z,5.57
2022-10-17T02:42:34.095Z,6.00
2022-10-17T02:47:46.156Z,6.13
2022-10-17T02:53:03.605Z,5.78
2022-10-17T02:58:28.146Z,5.55
2022-10-17T03:03:32.231Z,5.38
2022-10-17T03:08:33.983Z,5.78
2022-10-17T03:13:38.965Z,5.03
2022-10-17T03:18:44.346Z,5.50
2022-10-17T03:23:48.494Z,6.40
2022-10-17T03:28:53.494Z,5.15
2022-10-17T03:33:56.395Z,5.78
2022-10-17T03:38:58.226Z,5.43
2022-10-17T03:44:00.004Z,5.40
2022-10-17T03:49:01.947Z,5.28
2022-10-17T03:54:04.039Z,5.47
2022-10-17T03:59:06.074Z,5.80
2022-10-17T04:04:08.209Z,5.22
2022-10-17T04:09:11.187Z,5.53
2022-10-17T04:14:12.978Z,5.57
2022-10-17T04:19:14.772Z,6.03
2022-10-17T04:24:16.825Z,5.38
2022-10-17T04:29:18.667Z,6.10
2022-10-17T04:34:20.398Z,4.97
2022-10-17T04:39:22.241Z,5.30
2022-10-17T04:44:24.087Z,5.05
2022-10-17T04:49:25.815Z,5.07
2022-10-17T04:54:27.487Z,5.30
2022-10-17T04:59:29.219Z,5.28
2022-10-17T05:04:30.998Z,5.28
2022-10-17T05:09:32.871Z,5.28
2022-10-17T05:14:34.657Z,5.10
2022-10-17T05:19:36.368Z,5.07
2022-10-17T05:24:38.067Z,4.72
2022-10-17T05:29:39.819Z,4.75
2022-10-17T05:34:41.560Z,4.78
2022-10-17T05:39:43.952Z,5.53
2022-10-17T05:44:47.626Z,4.80
2022-10-17T05:49:52.318Z,4.68
2022-10-17T05:54:54.381Z,4.00
2022-10-17T05:59:56.144Z,4.90
2022-10-17T06:04:58.071Z,5.00
2022-10-17T06:09:59.794Z,5.07
2022-10-17T06:15:01.645Z,4.93
2022-10-17T06:20:04.336Z,4.63
2022-10-17T06:25:06.484Z,4.45
2022-10-17T06:30:08.817Z,4.88
2022-10-17T06:35:10.679Z,4.00
2022-10-17T06:40:15.090Z,4.25
2022-10-17T06:45:17.028Z,4.00
2022-10-17T06:50:18.785Z,4.43
2022-10-17T06:55:23.002Z,3.97
2022-10-17T07:00:26.834Z,3.90
2022-10-17T07:05:28.617Z,4.45
2022-10-17T07:10:30.364Z,3.65
2022-10-17T07:15:32.484Z,3.60
2022-10-17T07:20:34.723Z,4.32
2022-10-17T07:25:40.043Z,3.97
2022-10-17T07:30:42.328Z,3.35
2022-10-17T07:35:44.171Z,4.15
2022-10-17T07:40:45.946Z,3.97
2022-10-17T07:45:47.711Z,3.97
2022-10-17T07:50:49.796Z,3.85
2022-10-17T07:55:51.619Z,3.65
2022-10-17T08:00:53.416Z,3.60
2022-10-17T08:05:58.951Z,3.85
2022-10-17T08:11:09.635Z,3.70
2022-10-17T08:16:12.913Z,4.45
2022-10-17T08:21:14.804Z,4.93
2022-10-17T08:26:17.355Z,4.72
2022-10-17T08:31:20.671Z,5.38
2022-10-17T08:36:22.385Z,4.97
2022-10-17T08:41:39.178Z,4.97
2022-10-17T08:46:43.877Z,4.90
2022-10-17T08:51:52.815Z,4.90
2022-10-17T08:56:55.737Z,4.80
2022-10-17T09:02:23.372Z,5.50
2022-10-17T09:07:42.336Z,4.80
2022-10-17T09:13:06.872Z,5.35
2022-10-17T09:18:28.447Z,5.22
2022-10-17T09:28:54.249Z,5.45
2022-10-17T09:33:57.842Z,6.38
2022-10-17T09:39:22.898Z,6.30
2022-10-17T09:44:29.177Z,6.47
2022-10-17T09:49:40.397Z,5.32
2022-10-17T09:54:49.509Z,5.90
2022-10-17T10:00:00.595Z,5.78
2022-10-17T10:05:18.828Z,5.80
2022-10-17T10:10:27.993Z,5.90
2022-10-17T10:15:34.433Z,5.50
2022-10-17T10:20:37.636Z,6.10
2022-10-17T10:25:50.120Z,5.45
2022-10-17T10:30:52.989Z,6.13
2022-10-17T10:35:58.945Z,6.00
2022-10-17T10:41:10.215Z,6.35
2022-10-17T10:46:27.331Z,6.30
2022-10-17T10:51:35.294Z,6.25
2022-10-17T10:56:54.769Z,5.85
2022-10-17T11:02:21.020Z,6.57
2022-10-17T11:07:42.120Z,6.82
2022-10-17T11:13:17.140Z,6.53
2022-10-17T11:18:38.532Z,5.47
2022-10-17T11:23:46.754Z,5.97
2022-10-17T11:28:48.965Z,5.78
2022-10-17T11:33:50.736Z,5.57
2022-10-17T11:39:18.649Z,5.07
2022-10-17T11:44:32.789Z,4.50
2022-10-17T11:49:40.501Z,5.30
2022-10-17T11:54:50.869Z,4.90
2022-10-17T12:00:16.995Z,4.78
2022-10-17T12:05:37.277Z,4.70
2022-10-17T12:10:57.620Z,4.25
2022-10-17T12:16:22.281Z,5.00
2022-10-17T12:21:27.299Z,5.00
2022-10-17T12:26:31.443Z,5.05
2022-10-17T12:31:34.319Z,5.05
2022-10-17T12:36:37.268Z,5.80
2022-10-17T12:41:39.106Z,5.30
2022-10-17T12:46:56.065Z,5.18
2022-10-17T12:52:15.852Z,4.22
2022-10-17T12:57:39.264Z,5.83
2022-10-17T13:02:41.400Z,5.40
2022-10-17T13:07:45.344Z,5.75
2022-10-17T13:12:48.873Z,5.60
2022-10-17T13:17:59.045Z,5.97
2022-10-17T13:23:01.026Z,5.40
2022-10-17T13:28:13.597Z,6.25
2022-10-17T13:33:42.350Z,6.53
2022-10-17T13:38:44.213Z,5.70
2022-10-17T13:43:46.123Z,6.28
2022-10-17T13:48:49.433Z,5.55
2022-10-17T13:53:51.414Z,6.13
2022-10-17T13:58:57.296Z,5.95
2022-10-17T14:04:20.222Z,5.28
2022-10-17T14:09:26.835Z,5.13
2022-10-17T14:14:32.136Z,4.85
2022-10-17T14:19:37.943Z,5.60
2022-10-17T14:24:42.144Z,5.18
2022-10-17T14:29:52.729Z,4.30
2022-10-17T14:35:05.591Z,3.83
2022-10-17T14:40:21.044Z,4.15
2022-10-17T14:45:28.083Z,3.85
2022-10-17T14:50:31.921Z,4.78
2022-10-17T14:55:35.956Z,3.90
2022-10-17T15:00:37.644Z,3.83
2022-10-17T15:05:39.817Z,4.50
2022-10-17T15:10:42.578Z,4.38
2022-10-17T15:15:44.920Z,4.13
2022-10-17T15:20:46.818Z,3.88
2022-10-17T15:25:48.575Z,4.20
2022-10-17T15:30:50.293Z,4.03
2022-10-17T15:35:52.243Z,3.97
2022-10-17T15:40:53.975Z,4.90
2022-10-17T15:45:55.720Z,5.20
2022-10-17T15:50:57.722Z,5.00
2022-10-17T15:56:00.175Z,5.30
2022-10-17T16:01:02.349Z,5.80
2022-10-17T16:06:04.176Z,6.05
2022-10-17T16:11:06.253Z,5.28
2022-10-17T16:16:11.469Z,6.45
2022-10-17T16:21:14.995Z,5.88
2022-10-17T16:26:16.880Z,6.35
2022-10-17T16:31:23.329Z,6.45
2022-10-17T16:36:25.512Z,7.47
2022-10-17T16:41:29.891Z,7.13
2022-10-17T16:46:33.278Z,7.45
2022-10-17T16:51:35.940Z,6.38
2022-10-17T16:56:37.903Z,10.68
2022-10-17T17:01:39.926Z,7.95
2022-10-17T17:06:41.792Z,7.57
2022-10-17T17:11:43.553Z,5.65
2022-10-17T17:16:45.315Z,4.78
2022-10-17T17:21:51.080Z,4.75
2022-10-17T17:26:54.832Z,4.25
2022-10-17T17:31:56.575Z,2.75
2022-10-17T17:36:58.380Z,3.00
2022-10-17T17:42:00.274Z,3.13
2022-10-17T17:47:02.202Z,2.47
2022-10-17T17:57:10.727Z,2.83
2022-10-17T18:02:12.556Z,2.53
2022-10-17T18:07:14.637Z,2.55
2022-10-17T18:12:17.671Z,2.80
2022-10-17T18:17:19.444Z,2.97
2022-10-17T18:22:21.537Z,2.53
2022-10-17T18:27:23.379Z,2.50
2022-10-17T18:32:25.284Z,2.25
2022-10-17T18:37:27.352Z,2.25
2022-10-17T18:42:29.346Z,1.95
2022-10-17T18:47:33.259Z,2.28
2022-10-17T18:52:35.068Z,2.00
2022-10-17T18:57:36.926Z,2.10
2022-10-17T19:02:38.717Z,1.88
2022-10-17T19:07:40.481Z,2.22
2022-10-17T19:12:42.313Z,2.30
2022-10-17T19:17:44.106Z,2.30
2022-10-17T19:22:46.213Z,2.63
2022-10-17T19:27:48.060Z,2.35
2022-10-17T19:32:49.985Z,2.10
2022-10-17T19:37:53.209Z,2.28
2022-10-17T19:42:55.089Z,2.35
2022-10-17T19:47:57.059Z,2.47
2022-10-17T19:52:58.838Z,2.25
2022-10-17T19:58:03.036Z,2.08
2022-10-17T20:03:06.117Z,3.15
2022-10-17T20:08:07.938Z,2.13
2022-10-17T20:13:10.699Z,2.78
2022-10-17T20:18:12.466Z,2.95
2022-10-17T20:23:14.577Z,2.83
2022-10-17T20:28:16.376Z,3.08
2022-10-17T20:33:18.132Z,3.45
2022-10-17T20:38:19.947Z,3.83
2022-10-17T20:43:21.832Z,3.65
2022-10-17T20:48:24.003Z,3.45
2022-10-17T20:53:36.521Z,3.20
2022-10-17T20:58:38.955Z,3.30
2022-10-17T21:03:43.872Z,3.75
2022-10-17T21:08:49.116Z,3.75
2022-10-17T21:14:00.268Z,4.03
2022-10-17T21:19:03.745Z,4.20
2022-10-17T21:24:12.361Z,4.95
2022-10-17T21:29:14.300Z,4.30
2022-10-17T21:34:20.224Z,4.25
2022-10-17T21:39:24.201Z,4.22
2022-10-17T21:44:26.903Z,5.20
2022-10-17T21:49:29.739Z,4.70
2022-10-17T21:54:31.600Z,4.80
2022-10-17T21:59:35.226Z,5.10
2022-10-17T22:04:38.950Z,5.38
2022-10-17T22:09:40.675Z,5.72
2022-10-17T22:14:44.416Z,5.20
2022-10-17T22:19:47.178Z,6.10
2022-10-17T22:24:49.060Z,5.40
2022-10-17T22:29:50.783Z,5.47
2022-10-17T22:34:52.491Z,5.72
2022-10-17T22:39:56.299Z,5.35
2022-10-17T22:44:58.027Z,5.68
2022-10-17T22:49:59.736Z,5.07
2022-10-17T22:55:01.801Z,5.78
2022-10-17T23:00:21.897Z,6.55
2022-10-17T23:05:23.838Z,5.53
2022-10-17T23:10:25.630Z,5.30
2022-10-17T23:15:27.433Z,5.72
2022-10-17T23:20:30.377Z,5.50
2022-10-17T23:25:34.236Z,5.32
2022-10-17T23:30:37.344Z,7.03
2022-10-17T23:35:39.741Z,6.32
2022-10-17T23:40:42.134Z,6.38
2022-10-17T23:45:44.050Z,6.55
2022-10-17T23:50:45.863Z,6.70
2022-10-17T23:55:47.566Z,6.80
